Portada
METAR-TAF:

METAR-TAF

Aeroports :

Qurayyat, Aràbia Saudita

latitud: 31-24N, longitud: 037-16E, altitud: 509 m

Observació

L'informe es va fer fa 51 minuts, a les 18:00 UTC
Vent 14 kt del Oest/Nord-Oest
Temperatura 23°C
Humitat 23%
Pressió 1011 hPa
Visibilitat: 8000 m

METAR: OEGT 231800Z 30014KT 8000 NSC 23/01 Q1011 NOSIG

Hora: 21:51 (18:51 UTC)

Pronòstic

L'informe es va fer fa 7 hores i 51 minuts, a les 11:00 UTC
Pronòstic vàlid del 23 a les 12 UTC al 24 a les 18 UTC
Vent 18 kt del Nord-Oest
Visibilitat: 6000 m
Temporalment
l' 23 a les 12 UTC al 23 a les 23 UTC
Visibilitat: 2000 m
torb alta de sora
Probabilitat 30% :
Temporalment
l' 23 a les 14 UTC al 23 a les 18 UTC
Visibilitat: 0800 m
Evolucionant progressivament
l' 23 a les 18 UTC al 23 a les 20 UTC
Vent 10 kt del Oest

TAF: OEGT 231100Z 2312/2418 31018KT 6000 NSC TEMPO 2312/2323 2000 BLSA PROB30 TEMPO 2314/2318 0800 BECMG 2318/2320 28010KT

Observacions i pronòstics meteorològics de més de 4000 aeroports (METAR i TAF).

Les estacions disponibles són els punts grocs i vermells al mapa.

Posi el ratolí al punt desitjat per veure el nom de l'estació.

Feu clic per veure les observacions i els pronòstics meteorològics.

Per canviar el mapa: feu clic els botons verds amb una creu de color negre per apropar; al botó verd amb un guió per allunyar la imatge; o en les fletxes verdes per a mapes adjacents.


METAR-TAF: